Time;durP1;ratioP1;P1;durP2;ratioP2;P2;SDS_P1;SDS_P2;PMS_P1;PMS_P2;Temp;Humidity;BMP_temperature;BMP_pressure;BME280_temperature;BME280_humidity;BME280_pressure;Samples;Min_cycle;Max_cycle;Signal;HPM_P1;HPM_P2
2022/04/11 00:02:10;;;;;;;0.40;0.30;;;;;;;5.64;81.27;101424.00;5072575;28;20449;-71
2022/04/11 00:04:36;;;;;;;0.40;0.30;;;;;;;5.70;81.47;101423.00;5072442;28;20481;-71
2022/04/11 00:07:03;;;;;;;0.40;0.30;;;;;;;5.69;80.94;101421.38;5072506;28;20463;-71
2022/04/11 00:09:29;;;;;;;0.40;0.30;;;;;;;5.56;82.24;101422.53;5072062;28;20449;-71
2022/04/11 00:11:56;;;;;;;0.40;0.30;;;;;;;5.54;81.75;101423.88;5074044;28;20449;-71
2022/04/11 00:14:24;;;;;;;0.40;0.30;;;;;;;5.50;82.93;101423.53;5076001;28;20437;-71
2022/04/11 00:16:51;;;;;;;0.40;0.20;;;;;;;5.51;81.92;101418.97;5075937;28;20449;-71
2022/04/11 00:19:17;;;;;;;0.40;0.30;;;;;;;5.47;82.56;101426.72;5075929;28;20448;-71
2022/04/11 00:21:43;;;;;;;0.40;0.30;;;;;;;5.46;82.75;101425.09;5075896;28;20441;-71
2022/04/11 00:24:10;;;;;;;0.40;0.30;;;;;;;5.42;82.55;101420.44;5075789;28;20517;-71
2022/04/11 00:26:36;;;;;;;0.40;0.30;;;;;;;5.35;83.32;101428.66;5075439;28;20472;-71
2022/04/11 00:29:03;;;;;;;0.40;0.30;;;;;;;5.36;83.26;101419.56;5075806;28;20438;-72
2022/04/11 00:31:31;;;;;;;0.40;0.30;;;;;;;5.33;83.21;101417.38;5075658;28;20441;-72
2022/04/11 00:33:57;;;;;;;0.40;0.30;;;;;;;5.24;83.80;101419.66;5075597;28;20441;-71
2022/04/11 00:36:24;;;;;;;0.40;0.30;;;;;;;5.20;83.94;101413.13;5075370;28;20469;-71
2022/04/11 00:38:50;;;;;;;0.40;0.30;;;;;;;5.15;83.92;101414.94;5075421;28;20444;-71
2022/04/11 00:41:17;;;;;;;0.40;0.30;;;;;;;5.09;84.72;101406.00;5075388;28;20445;-71
2022/04/11 00:43:43;;;;;;;0.40;0.30;;;;;;;5.02;85.36;101416.06;5075314;28;20477;-71
2022/04/11 00:46:10;;;;;;;0.40;0.30;;;;;;;5.01;85.22;101412.56;5075388;28;20473;-72
2022/04/11 00:48:40;;;;;;;0.40;0.30;;;;;;;4.96;85.64;101414.34;5075382;28;20490;-73
2022/04/11 00:51:09;;;;;;;0.40;0.30;;;;;;;4.92;85.74;101411.34;5075075;28;21000;-74
2022/04/11 00:53:39;;;;;;;0.40;0.30;;;;;;;4.88;86.29;101412.88;5075332;28;20452;-73
2022/04/11 00:56:08;;;;;;;0.40;0.30;;;;;;;4.84;86.38;101413.59;5076163;28;20469;-73
2022/04/11 00:58:36;;;;;;;0.40;0.30;;;;;;;4.81;86.46;101418.38;5074766;28;20461;-73
2022/04/11 01:01:03;;;;;;;0.40;0.30;;;;;;;4.71;87.78;101423.59;5074939;28;20441;-74
2022/04/11 01:03:29;;;;;;;0.40;0.30;;;;;;;4.74;87.17;101415.06;5074564;28;20453;-73
2022/04/11 01:05:57;;;;;;;0.40;0.30;;;;;;;4.74;86.42;101423.13;5074798;28;20575;-73
2022/04/11 01:08:23;;;;;;;0.40;0.30;;;;;;;4.65;87.50;101424.56;5074810;28;20453;-73
2022/04/11 01:10:51;;;;;;;0.40;0.30;;;;;;;4.59;87.54;101422.81;5074827;28;20471;-73
2022/04/11 01:13:18;;;;;;;0.40;0.30;;;;;;;4.55;87.31;101427.03;5074886;28;20437;-73
2022/04/11 01:15:53;;;;;;;0.40;0.20;;;;;;;4.51;87.73;101412.47;5074794;28;20462;-73
2022/04/11 01:18:20;;;;;;;0.40;0.30;;;;;;;4.52;87.80;101422.97;5074906;28;20482;-74
2022/04/11 01:20:46;;;;;;;0.40;0.30;;;;;;;4.45;89.13;101430.34;5074423;28;20943;-74
2022/04/11 01:23:14;;;;;;;0.40;0.30;;;;;;;4.42;88.34;101422.75;5073804;28;20453;-73
2022/04/11 01:25:41;;;;;;;0.40;0.30;;;;;;;4.37;89.08;101429.91;5074442;28;20508;-73
2022/04/11 01:28:07;;;;;;;0.40;0.30;;;;;;;4.32;88.72;101422.59;5074486;28;20442;-72
2022/04/11 01:30:34;;;;;;;0.40;0.30;;;;;;;4.29;88.60;101431.09;5074594;28;20441;-72
2022/04/11 01:33:00;;;;;;;0.40;0.30;;;;;;;4.25;89.12;101428.09;5074423;28;20507;-73
2022/04/11 01:35:28;;;;;;;0.40;0.30;;;;;;;4.25;88.85;101421.88;5074034;28;20461;-73
2022/04/11 01:37:55;;;;;;;0.40;0.30;;;;;;;4.20;89.04;101422.59;5074422;28;20445;-73
2022/04/11 01:40:23;;;;;;;0.40;0.30;;;;;;;4.16;89.04;101424.16;5074348;28;20441;-73
2022/04/11 01:42:49;;;;;;;0.40;0.30;;;;;;;4.13;88.34;101421.94;5074277;28;20441;-73
2022/04/11 01:45:16;;;;;;;0.40;0.30;;;;;;;4.07;88.81;101420.19;5074122;28;20903;-73
2022/04/11 01:47:42;;;;;;;0.40;0.30;;;;;;;3.99;89.20;101417.91;5074255;28;20457;-73
2022/04/11 01:50:10;;;;;;;1.63;1.53;;;;;;;3.94;89.55;101415.09;5074450;28;20446;-73
2022/04/11 01:52:36;;;;;;;0.40;0.30;;;;;;;3.96;89.36;101411.13;5074121;28;20445;-73
2022/04/11 01:55:04;;;;;;;0.40;0.30;;;;;;;3.88;89.35;101411.50;5073704;28;20514;-73
2022/04/11 01:57:31;;;;;;;0.40;0.30;;;;;;;3.88;89.83;101405.34;5073873;28;20457;-73
2022/04/11 01:59:58;;;;;;;0.40;0.30;;;;;;;3.87;89.47;101414.44;5073582;28;20980;-73
2022/04/11 02:02:25;;;;;;;0.40;0.30;;;;;;;3.80;90.35;101410.00;5073967;28;20438;-72
2022/04/11 02:04:51;;;;;;;0.40;0.30;;;;;;;3.84;90.41;101407.66;5073753;28;20496;-72
2022/04/11 02:07:18;;;;;;;0.40;0.30;;;;;;;3.83;90.32;101418.63;5073808;28;20433;-72
2022/04/11 02:09:44;;;;;;;0.40;0.30;;;;;;;3.82;90.69;101412.44;5073849;28;20445;-72
2022/04/11 02:12:11;;;;;;;0.40;0.30;;;;;;;3.77;90.97;101413.16;5073744;28;20503;-72
2022/04/11 02:14:38;;;;;;;0.40;0.30;;;;;;;3.72;90.96;101412.25;5073633;28;20448;-69
2022/04/11 02:17:05;;;;;;;0.40;0.30;;;;;;;3.65;92.39;101414.22;5073326;28;20931;-71
2022/04/11 02:19:31;;;;;;;0.70;0.70;;;;;;;3.61;92.01;101413.88;5073606;28;20441;-72
2022/04/11 02:21:58;;;;;;;0.40;0.30;;;;;;;3.61;91.41;101410.38;5073607;28;20450;-69
2022/04/11 02:24:24;;;;;;;0.40;0.30;;;;;;;3.59;91.77;101409.81;5073463;28;20489;-69
2022/04/11 02:26:51;;;;;;;0.40;0.30;;;;;;;3.57;91.95;101415.38;5073796;28;20511;-74
2022/04/11 02:29:17;;;;;;;0.40;0.30;;;;;;;3.55;92.10;101417.50;5073542;28;20453;-73
2022/04/11 02:31:45;;;;;;;0.40;0.30;;;;;;;3.52;91.47;101417.94;5073162;28;20939;-74
2022/04/11 02:34:11;;;;;;;0.40;0.30;;;;;;;3.50;91.33;101412.03;5073280;28;20454;-74
2022/04/11 02:36:38;;;;;;;0.40;0.30;;;;;;;3.45;91.11;101409.19;5073340;28;20897;-74
2022/04/11 02:39:05;;;;;;;0.40;0.30;;;;;;;3.44;91.34;101410.25;5073389;28;20502;-74
2022/04/11 02:41:31;;;;;;;0.40;0.30;;;;;;;3.38;92.72;101408.53;5073378;28;20437;-72
2022/04/11 02:43:57;;;;;;;0.40;0.30;;;;;;;3.42;92.25;101407.81;5074545;28;20447;-73
2022/04/11 02:46:24;;;;;;;0.40;0.30;;;;;;;3.47;91.02;101407.13;5073081;28;20490;-74
2022/04/11 02:48:51;;;;;;;0.40;0.30;;;;;;;3.38;91.69;101403.16;5073284;28;20830;-73
2022/04/11 02:51:18;;;;;;;0.40;0.30;;;;;;;3.40;90.43;101398.38;5072986;28;20965;-73
2022/04/11 02:53:44;;;;;;;0.40;0.30;;;;;;;3.32;89.71;101401.41;5073224;28;20441;-73
2022/04/11 02:56:11;;;;;;;0.40;0.30;;;;;;;3.28;90.05;101399.22;5072938;28;20564;-74
2022/04/11 02:58:37;;;;;;;0.40;0.30;;;;;;;3.25;91.82;101402.34;5073124;28;20494;-73
2022/04/11 03:01:04;;;;;;;0.40;0.30;;;;;;;3.24;91.59;101400.72;5073212;28;20441;-73
2022/04/11 03:03:30;;;;;;;0.40;0.30;;;;;;;3.30;91.53;101404.31;5072789;28;20441;-73
2022/04/11 03:05:58;;;;;;;0.40;0.30;;;;;;;3.32;92.13;101396.88;5072959;28;20534;-73
2022/04/11 03:08:24;;;;;;;0.40;0.30;;;;;;;3.21;91.14;101398.50;5073259;28;20792;-72
2022/04/11 03:10:50;;;;;;;0.40;0.30;;;;;;;3.17;91.06;101394.66;5073026;28;20441;-73
2022/04/11 03:13:17;;;;;;;0.40;0.30;;;;;;;3.18;90.30;101398.94;5073022;28;20837;-73
2022/04/11 03:15:43;;;;;;;0.40;0.30;;;;;;;3.13;90.18;101406.88;5073863;28;20511;-73
2022/04/11 03:18:10;;;;;;;0.40;0.30;;;;;;;3.08;89.88;101409.41;5072983;28;20444;-75
2022/04/11 03:20:36;;;;;;;0.40;0.30;;;;;;;3.05;90.03;101409.88;5072576;28;20429;-73
2022/04/11 03:23:04;;;;;;;0.40;0.30;;;;;;;3.08;91.38;101420.13;5072808;28;20441;-73
2022/04/11 03:25:31;;;;;;;0.40;0.30;;;;;;;3.08;92.01;101406.75;5072823;28;20497;-73
2022/04/11 03:27:58;;;;;;;0.40;0.30;;;;;;;3.07;92.20;101402.44;5072806;28;20449;-71
2022/04/11 03:30:24;;;;;;;0.40;0.30;;;;;;;3.08;92.67;101404.06;5072467;28;20437;-71
2022/04/11 03:32:50;;;;;;;0.40;0.30;;;;;;;3.04;93.13;101410.94;5072752;28;20456;-71
2022/04/11 03:35:17;;;;;;;0.40;0.30;;;;;;;2.99;93.56;101411.63;5072659;28;20895;-72
2022/04/11 03:37:43;;;;;;;0.40;0.30;;;;;;;2.97;94.24;101412.91;5072706;28;20441;-71
2022/04/11 03:40:12;;;;;;;0.40;0.30;;;;;;;3.00;93.76;101418.59;5072671;28;20449;-71
2022/04/11 03:42:39;;;;;;;0.40;0.30;;;;;;;2.96;93.96;101413.94;5072609;28;20444;-69
2022/04/11 03:45:08;;;;;;;0.40;0.30;;;;;;;2.99;94.07;101424.19;5072113;28;20859;-71
2022/04/11 03:47:35;;;;;;;0.40;0.30;;;;;;;3.03;93.96;101420.00;5075306;28;20451;-71
2022/04/11 03:50:01;;;;;;;0.40;0.30;;;;;;;2.96;94.06;101417.41;5076315;28;20460;-71
2022/04/11 03:52:27;;;;;;;0.40;0.30;;;;;;;2.96;94.16;101416.59;5076272;28;20442;-71
2022/04/11 03:54:54;;;;;;;0.40;0.30;;;;;;;2.93;94.32;101417.91;5076077;28;20464;-71
2022/04/11 03:57:22;;;;;;;0.40;0.30;;;;;;;2.93;94.38;101415.22;5076033;28;20487;-71
2022/04/11 03:59:48;;;;;;;0.40;0.30;;;;;;;2.87;94.27;101413.44;5075889;28;20930;-71
2022/04/11 04:02:15;;;;;;;0.40;0.30;;;;;;;2.85;94.39;101418.22;5076109;28;20441;-71
2022/04/11 04:04:41;;;;;;;0.40;0.30;;;;;;;2.82;94.55;101423.22;5075934;28;20817;-71
2022/04/11 04:07:07;;;;;;;0.40;0.30;;;;;;;2.83;94.63;101419.47;5075740;28;20452;-71
2022/04/11 04:09:34;;;;;;;0.40;0.30;;;;;;;2.82;94.70;101424.03;5075945;28;20437;-71
2022/04/11 04:12:00;;;;;;;0.40;0.30;;;;;;;2.78;94.73;101415.63;5075674;28;20939;-71
2022/04/11 04:14:29;;;;;;;0.40;0.30;;;;;;;2.77;95.07;101418.53;5075825;28;20494;-72
2022/04/11 04:16:55;;;;;;;0.40;0.30;;;;;;;2.75;95.18;101418.78;5075838;28;20451;-71
2022/04/11 04:19:22;;;;;;;0.40;0.30;;;;;;;2.75;95.76;101421.47;5075905;28;20447;-71
2022/04/11 04:21:49;;;;;;;0.40;0.30;;;;;;;2.72;96.04;101413.88;5075912;28;20467;-71
2022/04/11 04:24:15;;;;;;;0.40;0.30;;;;;;;2.69;96.03;101425.03;5075885;28;20434;-72
2022/04/11 04:26:42;;;;;;;0.40;0.30;;;;;;;2.73;96.34;101420.84;5075905;28;20485;-71
2022/04/11 04:29:08;;;;;;;0.40;0.30;;;;;;;2.70;95.22;101415.97;5075791;28;20437;-72
2022/04/11 04:31:36;;;;;;;0.40;0.30;;;;;;;2.68;95.87;101418.06;5075695;28;20453;-71
2022/04/11 04:34:02;;;;;;;0.40;0.30;;;;;;;2.72;96.45;101419.22;5075649;28;20448;-71
2022/04/11 04:36:29;;;;;;;0.40;0.30;;;;;;;2.74;95.22;101427.00;5075541;28;20457;-72
2022/04/11 04:38:55;;;;;;;0.40;0.30;;;;;;;2.76;95.56;101420.41;5075740;28;20453;-72
2022/04/11 04:41:22;;;;;;;0.40;0.30;;;;;;;2.78;96.35;101430.88;5075504;28;20884;-72
2022/04/11 04:43:48;;;;;;;0.40;0.30;;;;;;;2.85;95.83;101428.94;5075438;28;20441;-73
2022/04/11 04:46:14;;;;;;;2.20;2.10;;;;;;;2.88;96.04;101424.97;5075602;28;20485;-73
2022/04/11 04:48:42;;;;;;;0.40;0.30;;;;;;;2.86;96.22;101432.41;5075066;28;20446;-72
2022/04/11 04:51:10;;;;;;;0.40;0.30;;;;;;;2.90;96.38;101425.56;5075331;28;20498;-73
2022/04/11 04:53:37;;;;;;;0.40;0.30;;;;;;;2.95;96.85;101428.38;5075323;28;20449;-73
2022/04/11 04:56:03;;;;;;;0.40;0.30;;;;;;;2.93;97.16;101430.47;5075122;28;20469;-72
2022/04/11 04:58:30;;;;;;;0.40;0.30;;;;;;;2.98;97.02;101431.41;5074009;28;20495;-72
2022/04/11 05:00:56;;;;;;;0.40;0.30;;;;;;;3.03;96.82;101436.06;5075148;28;20491;-72
2022/04/11 05:03:23;;;;;;;0.40;0.30;;;;;;;3.07;96.70;101441.78;5075120;28;20448;-72
2022/04/11 05:05:50;;;;;;;0.40;0.30;;;;;;;3.07;96.15;101442.59;5074601;28;20982;-72
2022/04/11 05:08:17;;;;;;;0.40;0.30;;;;;;;3.09;96.27;101445.03;5075064;28;20441;-73
2022/04/11 05:10:44;;;;;;;0.40;0.30;;;;;;;3.07;96.05;101442.59;5074965;28;20462;-72
2022/04/11 05:13:11;;;;;;;0.40;0.30;;;;;;;3.18;95.81;101447.13;5075215;28;20495;-72
2022/04/11 05:15:38;;;;;;;0.40;0.30;;;;;;;3.18;95.76;101444.47;5074826;28;20449;-72
2022/04/11 05:18:05;;;;;;;0.40;0.30;;;;;;;3.21;96.28;101454.72;5074824;28;20445;-72
2022/04/11 05:20:31;;;;;;;0.40;0.30;;;;;;;3.26;95.80;101452.16;5074428;28;20962;-71
2022/04/11 05:22:59;;;;;;;0.40;0.30;;;;;;;3.34;95.57;101459.03;5074761;28;20437;-71
2022/04/11 05:25:25;;;;;;;0.60;0.60;;;;;;;3.38;95.23;101460.22;5074680;28;20579;-71
2022/04/11 05:27:52;;;;;;;0.40;0.30;;;;;;;3.43;95.04;101467.56;5074369;28;20445;-71
2022/04/11 05:30:19;;;;;;;0.40;0.30;;;;;;;3.46;95.27;101467.09;5074597;28;20520;-72
2022/04/11 05:32:45;;;;;;;0.40;0.30;;;;;;;3.49;95.45;101463.94;5074521;28;20491;-71
2022/04/11 05:35:12;;;;;;;0.40;0.30;;;;;;;3.53;94.28;101459.75;5074457;28;20469;-72
2022/04/11 05:37:38;;;;;;;0.40;0.30;;;;;;;3.52;94.57;101471.50;5074882;28;20444;-72
2022/04/11 05:40:09;;;;;;;0.40;0.30;;;;;;;3.56;94.58;101467.31;5074886;28;20449;-71
2022/04/11 05:42:37;;;;;;;0.40;0.30;;;;;;;3.62;94.44;101460.22;5074406;28;20425;-72
2022/04/11 05:45:04;;;;;;;0.40;0.30;;;;;;;3.67;94.46;101466.50;5074158;28;20871;-71
2022/04/11 05:47:30;;;;;;;0.40;0.30;;;;;;;3.74;94.31;101469.88;5074532;28;20437;-72
2022/04/11 05:49:57;;;;;;;0.40;0.20;;;;;;;3.83;94.19;101470.34;5074465;28;20514;-71
2022/04/11 05:52:23;;;;;;;0.40;0.30;;;;;;;3.89;93.93;101463.22;5074411;28;20923;-71
2022/04/11 05:54:50;;;;;;;0.40;0.30;;;;;;;4.00;93.05;101467.78;5074101;28;20464;-71
2022/04/11 05:57:17;;;;;;;0.40;0.30;;;;;;;4.13;91.96;101466.72;5073770;28;20449;-71
2022/04/11 05:59:44;;;;;;;0.40;0.30;;;;;;;4.19;92.44;101463.88;5073988;28;20490;-70
2022/04/11 06:02:10;;;;;;;0.40;0.30;;;;;;;4.29;91.72;101466.78;5073999;28;20445;-73
2022/04/11 06:04:37;;;;;;;0.50;0.30;;;;;;;4.40;90.85;101475.03;5073898;28;20452;-72
2022/04/11 06:07:04;;;;;;;0.40;0.30;;;;;;;4.46;90.16;101471.38;5073762;28;20517;-72
2022/04/11 06:09:30;;;;;;;0.40;0.30;;;;;;;4.52;89.59;101475.81;5073482;28;20445;-72
2022/04/11 06:11:57;;;;;;;0.40;0.30;;;;;;;4.63;89.19;101476.81;5073781;28;20469;-71
2022/04/11 06:14:25;;;;;;;0.40;0.30;;;;;;;4.70;89.11;101483.69;5073709;28;20854;-72
2022/04/11 06:16:51;;;;;;;0.40;0.30;;;;;;;4.77;87.95;101484.34;5073358;28;20862;-73
2022/04/11 06:19:18;;;;;;;0.40;0.30;;;;;;;4.77;87.09;101487.03;5073664;28;20445;-74
2022/04/11 06:21:44;;;;;;;0.40;0.30;;;;;;;4.87;86.70;101481.06;5073635;28;20430;-71
2022/04/11 06:24:11;;;;;;;0.40;0.30;;;;;;;4.92;86.85;101483.81;5073562;28;20496;-72
2022/04/11 06:26:37;;;;;;;0.40;0.30;;;;;;;5.03;86.40;101492.84;5073639;28;20910;-73
2022/04/11 06:29:04;;;;;;;0.40;0.30;;;;;;;5.07;87.04;101496.69;5073195;28;20946;-70
2022/04/11 06:31:31;;;;;;;0.40;0.27;;;;;;;5.16;86.43;101491.75;5073213;28;20903;-74
2022/04/11 06:33:58;;;;;;;0.40;0.30;;;;;;;5.24;85.77;101488.66;5073522;28;20454;-72
2022/04/11 06:36:24;;;;;;;0.40;0.30;;;;;;;5.38;85.42;101497.22;5073386;28;20487;-72
2022/04/11 06:38:51;;;;;;;0.40;0.30;;;;;;;5.42;84.15;101498.38;5073437;28;20445;-73
2022/04/11 06:41:17;;;;;;;0.40;0.30;;;;;;;5.47;82.70;101491.19;5073642;28;20548;-73
2022/04/11 06:43:43;;;;;;;0.50;0.30;;;;;;;5.53;82.02;101492.06;5073309;28;20456;-73
2022/04/11 06:46:10;;;;;;;0.40;0.30;;;;;;;5.55;82.42;101501.53;5073195;28;20496;-73
2022/04/11 06:48:38;;;;;;;0.40;0.30;;;;;;;5.60;82.70;101494.63;5072981;28;20448;-73
2022/04/11 06:51:04;;;;;;;0.40;0.30;;;;;;;5.69;81.85;101499.31;5073282;28;20558;-72
2022/04/11 06:53:30;;;;;;;0.40;0.23;;;;;;;5.83;80.27;101497.91;5073245;28;20450;-73
2022/04/11 06:55:57;;;;;;;0.40;0.30;;;;;;;5.95;78.58;101494.34;5073029;28;20477;-73
2022/04/11 06:58:23;;;;;;;0.40;0.30;;;;;;;6.04;78.52;101501.75;5074492;28;20452;-73
2022/04/11 07:00:49;;;;;;;0.40;0.30;;;;;;;6.14;75.61;101502.94;5073751;28;20441;-73
2022/04/11 07:03:16;;;;;;;0.40;0.30;;;;;;;6.19;75.89;101501.13;5073149;28;20444;-73
2022/04/11 07:05:44;;;;;;;0.40;0.20;;;;;;;6.21;75.78;101501.72;5072646;28;20461;-74
2022/04/11 07:08:10;;;;;;;0.40;0.30;;;;;;;6.29;73.30;101493.22;5073124;28;20438;-73
2022/04/11 07:10:40;;;;;;;0.40;0.30;;;;;;;6.41;72.45;101505.72;5073050;28;20445;-73
2022/04/11 07:13:07;;;;;;;0.43;0.37;;;;;;;6.54;70.90;101505.34;5072776;28;20483;-73
2022/04/11 07:15:33;;;;;;;0.40;0.30;;;;;;;6.60;70.91;101501.66;5073016;28;20454;-73
2022/04/11 07:18:00;;;;;;;0.40;0.30;;;;;;;6.64;68.53;101510.88;5072744;28;20965;-73
2022/04/11 07:20:26;;;;;;;0.40;0.30;;;;;;;6.75;68.95;101509.09;5073134;28;20443;-73
2022/04/11 07:22:54;;;;;;;0.40;0.30;;;;;;;6.81;69.73;101513.44;5076610;28;20479;-73
2022/04/11 07:25:23;;;;;;;0.40;0.30;;;;;;;6.78;68.02;101511.28;5076941;28;20465;-70
2022/04/11 07:27:49;;;;;;;0.40;0.20;;;;;;;6.83;66.66;101506.75;5076879;28;20595;-70
2022/04/11 07:30:16;;;;;;;0.40;0.30;;;;;;;6.92;66.57;101504.44;5076922;28;20498;-73
2022/04/11 07:32:43;;;;;;;0.40;0.30;;;;;;;7.06;66.46;101518.28;5076828;28;20453;-74
2022/04/11 07:35:09;;;;;;;0.40;0.27;;;;;;;7.15;65.07;101511.38;5076990;28;20842;-74
2022/04/11 07:37:36;;;;;;;0.40;0.30;;;;;;;7.26;61.88;101514.97;5076769;28;20441;-74
2022/04/11 07:40:05;;;;;;;0.40;0.30;;;;;;;7.21;62.75;101504.97;5076770;28;20867;-74
2022/04/11 07:42:31;;;;;;;0.40;0.30;;;;;;;7.23;63.49;101510.13;5076623;28;20446;-74
2022/04/11 07:44:58;;;;;;;0.40;0.30;;;;;;;7.33;63.76;101507.50;5076551;28;20519;-74
2022/04/11 07:47:24;;;;;;;0.40;0.30;;;;;;;7.52;62.24;101521.41;5076511;28;20859;-74
2022/04/11 07:49:51;;;;;;;0.40;0.30;;;;;;;7.60;62.10;101515.53;5076249;28;20965;-75
2022/04/11 07:52:18;;;;;;;0.40;0.30;;;;;;;7.66;61.26;101519.91;5076589;28;20487;-74
2022/04/11 07:54:44;;;;;;;0.40;0.30;;;;;;;7.68;61.55;101515.06;5076712;28;20445;-74
2022/04/11 07:57:12;;;;;;;0.40;0.30;;;;;;;7.76;62.27;101516.47;5076231;28;20976;-74
2022/04/11 07:59:38;;;;;;;0.40;0.30;;;;;;;7.84;61.98;101519.50;5076367;28;20453;-74
2022/04/11 08:02:05;;;;;;;0.40;0.30;;;;;;;7.92;60.67;101517.38;5076169;28;20445;-74
2022/04/11 08:04:32;;;;;;;0.40;0.30;;;;;;;7.91;60.49;101510.34;5076133;28;20441;-74
2022/04/11 08:06:59;;;;;;;0.40;0.30;;;;;;;7.99;59.92;101512.56;5076174;28;20484;-74
2022/04/11 08:09:25;;;;;;;0.40;0.30;;;;;;;8.14;57.85;101517.25;5076258;28;20453;-74
2022/04/11 08:11:52;;;;;;;0.40;0.30;;;;;;;8.19;58.35;101509.16;5076187;28;20437;-73
2022/04/11 08:14:20;;;;;;;0.40;0.30;;;;;;;8.38;60.70;101512.28;5076321;28;20441;-73
2022/04/11 08:16:47;;;;;;;0.40;0.30;;;;;;;8.52;57.62;101505.31;5075975;28;20453;-72
2022/04/11 08:19:13;;;;;;;0.40;0.30;;;;;;;8.98;60.04;101516.25;5075992;28;20444;-72
2022/04/11 08:21:40;;;;;;;0.40;0.30;;;;;;;9.06;55.45;101518.41;5075964;28;20818;-73
2022/04/11 08:24:06;;;;;;;0.40;0.30;;;;;;;9.04;56.65;101526.00;5075983;28;20445;-73
2022/04/11 08:26:33;;;;;;;0.40;0.30;;;;;;;9.07;56.40;101520.03;5075767;28;20504;-74
2022/04/11 08:28:59;;;;;;;0.40;0.30;;;;;;;9.23;55.32;101521.69;5075924;28;20818;-74
2022/04/11 08:31:27;;;;;;;0.40;0.30;;;;;;;9.34;54.25;101517.94;5075795;28;20816;-73
2022/04/11 08:33:53;;;;;;;0.40;0.30;;;;;;;9.50;53.81;101520.63;5075477;28;20445;-74
2022/04/11 08:36:20;;;;;;;0.40;0.30;;;;;;;9.53;54.22;101525.50;5075599;28;20461;-74
2022/04/11 08:38:47;;;;;;;0.40;0.30;;;;;;;9.46;51.55;101523.06;5075563;28;20441;-73
2022/04/11 08:41:17;;;;;;;0.40;0.30;;;;;;;9.43;50.67;101525.47;5075595;28;20449;-73
2022/04/11 08:43:44;;;;;;;0.40;0.30;;;;;;;9.40;49.06;101520.63;5075585;28;20481;-75
2022/04/11 08:46:12;;;;;;;0.40;0.30;;;;;;;9.40;51.47;101521.44;5075493;28;20468;-73
2022/04/11 08:48:42;;;;;;;0.40;0.30;;;;;;;9.48;49.58;101517.41;5075605;28;20444;-74
2022/04/11 08:51:09;;;;;;;0.40;0.30;;;;;;;9.48;51.11;101520.09;5075059;28;20827;-73
2022/04/11 08:53:35;;;;;;;0.40;0.30;;;;;;;9.27;48.28;101522.78;5075235;28;20446;-74
2022/04/11 08:56:02;;;;;;;0.40;0.30;;;;;;;9.24;50.52;101511.69;5075058;28;20478;-73
2022/04/11 08:58:28;;;;;;;0.40;0.30;;;;;;;9.46;50.24;101514.94;5075604;28;20445;-73
2022/04/11 09:00:55;;;;;;;0.40;0.30;;;;;;;9.53;48.46;101520.91;5074905;28;20456;-73
2022/04/11 09:03:21;;;;;;;0.40;0.30;;;;;;;9.49;48.93;101519.81;5075207;28;20438;-74
2022/04/11 09:08:50;;;;;;;0.40;0.30;;;;;;;9.52;49.88;101515.78;5152543;27;20891;-75
2022/04/11 09:11:27;;;;;;;0.40;0.30;;;;;;;9.58;49.30;101506.56;5152128;27;20876;-74
2022/04/11 09:13:54;;;;;;;0.40;0.30;;;;;;;9.77;50.59;101510.31;5152370;27;20770;-75
2022/04/11 09:16:20;;;;;;;0.40;0.30;;;;;;;9.83;49.88;101501.13;5152124;27;20457;-74
2022/04/11 09:18:49;;;;;;;0.40;0.30;;;;;;;9.91;49.11;101507.06;5152266;27;20434;-75
2022/04/11 09:21:16;;;;;;;0.40;0.30;;;;;;;10.04;48.31;101515.41;5151963;27;20965;-75
2022/04/11 09:23:44;;;;;;;0.40;0.30;;;;;;;10.03;47.38;101507.56;5152096;27;20473;-74
2022/04/11 09:26:21;;;;;;;0.40;0.30;;;;;;;10.14;48.25;101502.94;5151975;27;20457;-74
2022/04/11 09:29:01;;;;;;;0.40;0.30;;;;;;;10.19;47.85;101506.47;5152301;27;20433;-74
2022/04/11 09:31:27;;;;;;;0.40;0.27;;;;;;;10.23;47.45;101504.81;5152085;27;20450;-75
2022/04/11 09:33:54;;;;;;;0.40;0.30;;;;;;;10.21;47.41;101504.28;5152052;27;20441;-75
2022/04/11 09:36:21;;;;;;;0.40;0.30;;;;;;;10.27;44.16;101502.38;5151935;27;20522;-74
2022/04/11 09:38:59;;;;;;;0.40;0.30;;;;;;;10.31;45.00;101508.88;5151912;27;20442;-75
2022/04/11 09:41:29;;;;;;;0.40;0.30;;;;;;;10.31;47.01;101501.59;5151983;27;20454;-75
2022/04/11 09:43:56;;;;;;;0.40;0.30;;;;;;;10.43;46.82;101497.72;5151867;27;20546;-75
2022/04/11 09:46:23;;;;;;;0.40;0.30;;;;;;;10.48;45.56;101501.22;5151719;27;20450;-74
2022/04/11 09:48:52;;;;;;;0.40;0.30;;;;;;;10.58;45.89;101493.06;5151773;27;20446;-74
2022/04/11 09:51:18;;;;;;;0.40;0.30;;;;;;;10.57;46.24;101485.19;5151771;27;20522;-75
2022/04/11 09:53:46;;;;;;;0.40;0.30;;;;;;;10.64;46.61;101488.44;5151614;27;20445;-74
2022/04/11 09:56:14;;;;;;;0.40;0.30;;;;;;;10.71;47.27;101483.50;5151433;27;20602;-74
2022/04/11 09:58:42;;;;;;;0.40;0.27;;;;;;;10.81;44.99;101496.19;5151378;27;20511;-75
2022/04/11 10:01:09;;;;;;;0.40;0.30;;;;;;;10.78;44.76;101492.13;5151906;27;20854;-74
2022/04/11 10:03:36;;;;;;;0.40;0.27;;;;;;;10.78;45.30;101491.34;5151467;27;20434;-74
2022/04/11 10:06:05;;;;;;;0.40;0.30;;;;;;;10.89;46.17;101483.94;5151421;27;20458;-74
2022/04/11 10:08:32;;;;;;;0.40;0.30;;;;;;;10.88;43.74;101485.84;5150815;27;21002;-75
2022/04/11 10:10:59;;;;;;;0.40;0.30;;;;;;;11.04;42.59;101483.84;5151385;27;20812;-74
2022/04/11 10:13:27;;;;;;;0.40;0.30;;;;;;;11.24;42.94;101478.25;5151140;27;20441;-74
2022/04/11 10:15:53;;;;;;;0.40;0.30;;;;;;;11.26;41.95;101486.94;5151117;27;20473;-74
2022/04/11 10:18:25;;;;;;;0.40;0.30;;;;;;;11.53;42.44;101486.44;5147079;27;20841;-74
2022/04/11 10:20:56;;;;;;;0.40;0.30;;;;;;;11.48;40.18;101483.78;5137329;27;20800;-75
2022/04/11 10:23:30;;;;;;;0.40;0.30;;;;;;;11.41;42.07;101475.16;5137367;27;20419;-75
2022/04/11 10:26:00;;;;;;;0.40;0.30;;;;;;;11.55;42.62;101484.25;5137265;27;20462;-74
2022/04/11 10:28:30;;;;;;;0.40;0.30;;;;;;;11.72;42.51;101485.72;5136926;27;20475;-75
2022/04/11 10:31:09;;;;;;;0.40;0.30;;;;;;;11.80;42.28;101472.34;5136923;27;20490;-74
2022/04/11 10:33:43;;;;;;;0.40;0.30;;;;;;;11.88;41.30;101456.56;5136914;27;20461;-73
2022/04/11 10:36:29;;;;;;;0.40;0.30;;;;;;;11.79;40.88;101472.63;5136864;27;20454;-74
2022/04/11 10:39:28;;;;;;;0.40;0.30;;;;;;;11.91;41.41;101475.81;5136819;27;20438;-75
2022/04/11 10:42:25;;;;;;;0.40;0.30;;;;;;;11.80;40.95;101480.47;5136786;27;20431;-75
2022/04/11 10:44:56;;;;;;;0.40;0.30;;;;;;;11.69;41.04;101480.88;5134350;27;20820;-75
2022/04/11 10:47:30;;;;;;;0.40;0.30;;;;;;;11.55;41.24;101475.28;5136838;27;20496;-75
2022/04/11 10:50:22;;;;;;;0.40;0.30;;;;;;;11.38;40.70;101473.03;5136775;27;20427;-75
2022/04/11 10:52:54;;;;;;;0.40;0.30;;;;;;;11.48;41.15;101477.53;5136836;27;20435;-75
2022/04/11 10:55:23;;;;;;;0.40;0.30;;;;;;;11.28;41.23;101473.09;5136647;27;20553;-75
2022/04/11 10:57:51;;;;;;;0.40;0.30;;;;;;;11.25;41.85;101457.41;5136278;27;20981;-75
2022/04/11 11:00:20;;;;;;;0.40;0.30;;;;;;;11.14;42.01;101463.97;5136229;27;20927;-75
2022/04/11 11:03:13;;;;;;;0.40;0.30;;;;;;;11.18;42.26;101454.19;5136385;27;20447;-75
2022/04/11 11:05:42;;;;;;;0.60;0.60;;;;;;;11.02;42.43;101458.91;5136341;27;20467;-75
2022/04/11 11:08:32;;;;;;;0.40;0.30;;;;;;;11.04;43.23;101454.03;5135922;27;20482;-75
2022/04/11 11:11:01;;;;;;;0.40;0.30;;;;;;;11.33;42.53;101462.19;5136322;27;20422;-75
2022/04/11 11:13:30;;;;;;;0.40;0.30;;;;;;;11.33;42.59;101471.16;5136243;27;20438;-71
2022/04/11 11:15:59;;;;;;;0.40;0.30;;;;;;;11.41;40.63;101458.06;5136163;27;20463;-75
2022/04/11 11:18:26;;;;;;;0.40;0.30;;;;;;;11.72;40.71;101458.59;5135825;27;20931;-73
2022/04/11 11:20:53;;;;;;;0.40;0.30;;;;;;;12.47;40.20;101450.66;5136103;27;20431;-70
2022/04/11 11:23:26;;;;;;;0.40;0.30;;;;;;;12.98;39.45;101441.78;5136251;27;20439;-78
2022/04/11 11:25:54;;;;;;;0.40;0.27;;;;;;;13.54;38.38;101453.66;5135905;27;20463;-75
2022/04/11 11:28:22;;;;;;;0.40;0.30;;;;;;;13.49;38.58;101445.59;5136757;27;20484;-75
2022/04/11 11:30:48;;;;;;;0.40;0.30;;;;;;;14.13;38.58;101458.28;5135542;27;20831;-77
2022/04/11 11:33:19;;;;;;;0.40;0.20;;;;;;;14.33;36.36;101448.84;5136558;27;20479;-75
2022/04/11 11:35:50;;;;;;;0.40;0.30;;;;;;;14.85;37.32;101451.28;5137372;27;20451;-76
2022/04/11 11:38:21;;;;;;;0.40;0.30;;;;;;;14.72;36.76;101446.69;5136222;27;20431;-76